• Join FlightAware (Why Join?)
  • Login
  • US Flag 
07:16PM EST


 

Airport Tracker/Info


-or-


 

Live Flight TrackerFlight Track Log ✈ EJA982 ✈ 18-Jun-2013 ✈ KBFI - KBJC

Flight Track Log - Related Links

Times and Time Zones

All times are in EDT time to prevent confusion due to time zone crossing. See the EJA982 flight status page for this flight to view local times or setup timezone preferences in your user account.

Time Position Orientation Groundspeed Altitude Reporting Facility
EDT Latitude Longitude Course Direction KTS MPH feet Rate Location/Type
12:16AM 47.5111 -122.2850 147° Southeast 199 229 1,000  Level Seattle Center
12:16AM 47.4786 -122.2536 148° Southeast 221 254 2,400 2,460 Climbing Seattle Center
12:17AM 47.4400 -122.2153 146° Southeast 235 270 4,300 2,520 Climbing Seattle Center
12:18AM 47.3714 -122.1842 163° South 258 297 6,800 2,520 Climbing Seattle Center
12:19AM 47.2975 -122.1653 170° South 268 308 9,500 2,580 Climbing Seattle Center
12:20AM 47.2086 -122.1414 170° South 304 350 12,100 2,760 Climbing Seattle Center
12:21AM 47.1114 -122.1161 170° South 351 404 15,100 2,940 Climbing Seattle Center
12:22AM 47.0122 -122.0906 170° South 354 407 18,100 2,640 Climbing Seattle Center
12:23AM 46.9131 -122.0650 170° South 361 415 20,500 2,700 Climbing Seattle Center
12:24AM 46.8142 -122.0378 169° South 365 420 23,600 2,460 Climbing Seattle Center
12:25AM 46.7389 -121.9397 138° Southeast 375 432 25,600 2,220 Climbing Seattle Center
12:26AM 46.6819 -121.8042 121° Southeast 390 449 28,100 1,980 Climbing Seattle Center
12:27AM 46.6233 -121.6681 122° Southeast 399 459 29,700 1,680 Climbing Seattle Center
12:28AM 46.5589 -121.5144 121° Southeast 417 480 31,600 1,800 Climbing Seattle Center
12:29AM 46.4964 -121.3706 122° Southeast 421 484 33,400 1,440 Climbing Seattle Center
12:30AM 46.4336 -121.2272 122° Southeast 423 487 34,600 1,140 Climbing Seattle Center
12:31AM 46.3683 -121.0792 123° Southeast 434 499 35,700 960 Climbing Seattle Center
12:32AM 46.3017 -120.9281 123° Southeast 443 510 36,600 840 Climbing Seattle Center
12:33AM 46.2336 -120.7733 122° Southeast 454 522 37,500 900 Climbing Seattle Center
12:34AM 46.1653 -120.6206 123° Southeast 453 521 38,500 960 Climbing Seattle Center
12:35AM 46.0978 -120.4700 123° Southeast 450 518 39,500 900 Climbing Seattle Center
12:36AM 46.0300 -120.3197 123° Southeast 448 516 40,400 720 Climbing Seattle Center
12:37AM 45.9631 -120.1728 123° Southeast 441 507 41,000 240 Climbing Seattle Center
12:38AM 45.8936 -120.0211 123° Southeast 449 517 41,000  Level Seattle Center
12:39AM 45.8228 -119.8672 123° Southeast 459 528 41,000  Level Seattle Center
12:40AM 45.7350 -119.6781 124° Southeast 469 540 41,000  Level Seattle Center
12:41AM 45.6614 -119.5192 124° Southeast 477 549 41,000  Level Seattle Center
12:42AM 45.5864 -119.3581 124° Southeast 482 555 41,000  Level Seattle Center
12:43AM 45.5108 -119.1969 124° Southeast 486 559 41,000  Level Seattle Center
12:44AM 45.4339 -119.0364 124° Southeast 488 562 41,000  Level Seattle Center
12:45AM 45.3575 -118.8733 124° Southeast 492 566 41,000  Level Seattle Center
12:46AM 45.2808 -118.7136 124° Southeast 490 564 41,000  Level Seattle Center
12:47AM 45.2033 -118.5544 125° Southeast 491 565 41,000  Level Seattle Center
12:48AM 45.1094 -118.3617 125° Southeast 490 564 41,000  Level Salt Lake Center
12:50AM 45.0333 -118.2025 124° Southeast 489 563 41,000  Level Salt Lake Center
12:50AM 44.9775 -118.0583 119° Southeast 490 564 41,000  Level Seattle Center
12:51AM 44.9200 -117.8906 116° Southeast 495 570 41,000  Level Seattle Center
12:52AM 44.8631 -117.7233 116° Southeast 495 570 41,000  Level Seattle Center
12:53AM 44.7964 -117.5303 116° Southeast 493 567 41,000  Level Seattle Center
12:54AM 44.7375 -117.3636 116° Southeast 496 571 41,000  Level Seattle Center
12:55AM 44.6692 -117.1675 116° Southeast 501 577 41,000  Level Seattle Center
12:56AM 44.6092 -116.9992 117° Southeast 504 580 41,000  Level Seattle Center
12:57AM 44.5506 -116.8306 116° Southeast 504 580 41,000  Level Seattle Center
12:58AM 44.4789 -116.6347 117° Southeast 506 582 41,000  Level Seattle Center
12:59AM 44.4189 -116.4661 116° Southeast 508 585 41,000  Level Seattle Center
01:00AM 44.3578 -116.3014 117° Southeast 507 583 41,000  Level Seattle Center
01:02AM 44.2692 -116.0544 117° Southeast 507 583 41,000  Level Salt Lake Center
01:03AM 44.2103 -115.8919 117° Southeast 497 572 41,000  Level Salt Lake Center
01:04AM 44.1378 -115.6983 118° Southeast 505 581 41,000  Level Salt Lake Center
01:05AM 44.0764 -115.5339 117° Southeast 502 578 41,000  Level Salt Lake Center
01:06AM 44.0147 -115.3692 117° Southeast 503 579 41,000  Level Salt Lake Center
01:07AM 43.9419 -115.1769 118° Southeast 503 579 41,000  Level Salt Lake Center
01:08AM 43.8797 -115.0117 118° Southeast 505 581 41,000  Level Salt Lake Center
01:09AM 43.8167 -114.8494 118° Southeast 502 578 41,000  Level Salt Lake Center
01:10AM 43.7442 -114.6564 117° Southeast 506 582 41,000  Level Salt Lake Center
01:11AM 43.6806 -114.4922 118° Southeast 506 582 41,000  Level Salt Lake Center
01:12AM 43.6161 -114.3267 118° Southeast 510 587 41,000  Level Salt Lake Center
01:13AM 43.5428 -114.1358 118° Southeast 505 581 41,000  Level Salt Lake Center
01:14AM 43.4769 -113.9742 119° Southeast 505 581 41,000  Level Salt Lake Center
01:15AM 43.4094 -113.8006 118° Southeast 516 594 41,000  Level Salt Lake Center
01:16AM 43.3328 -113.6081 119° Southeast 515 593 41,000  Level Salt Lake Center
01:17AM 43.2661 -113.4431 119° Southeast 517 595 41,000  Level Salt Lake Center
01:18AM 43.1992 -113.2756 119° Southeast 522 601 41,000  Level Salt Lake Center
01:19AM 43.1200 -113.0833 119° Southeast 520 598 41,000  Level Salt Lake Center
01:20AM 43.0522 -112.9167 119° Southeast 524 603 41,000  Level Salt Lake Center
01:21AM 42.9847 -112.7514 119° Southeast 523 602 41,000  Level Salt Lake Center
01:22AM 42.9044 -112.5583 120° Southeast 525 604 41,000  Level Salt Lake Center
01:23AM 42.8356 -112.3936 120° Southeast 524 603 41,000  Level Salt Lake Center
01:24AM 42.7553 -112.1997 119° Southeast 527 606 41,000  Level Salt Lake Center
01:25AM 42.6906 -112.0506 121° Southeast 529 609 41,000  Level Salt Lake Center
01:26AM 42.6172 -111.8769 120° Southeast 529 609 41,000  Level Salt Lake Center
01:27AM 42.5436 -111.7053 120° Southeast 528 608 41,000  Level Salt Lake Center
01:28AM 42.4706 -111.5344 120° Southeast 525 604 41,000  Level Salt Lake Center
01:29AM 42.3814 -111.3292 120° Southeast 527 606 41,000  Level Salt Lake Center
01:30AM 42.3072 -111.1589 120° Southeast 526 605 41,000  Level Salt Lake Center
01:31AM 42.2333 -110.9867 120° Southeast 529 609 41,000  Level Salt Lake Center
01:32AM 42.1622 -110.8250 121° Southeast 529 609 41,000  Level Salt Lake Center
01:33AM 42.0900 -110.6608 121° Southeast 532 612 41,000  Level Salt Lake Center
01:34AM 42.0042 -110.4700 121° Southeast 535 616 41,000  Level Salt Lake Center
01:35AM 41.9314 -110.3067 121° Southeast 533 613 41,000  Level Salt Lake Center
01:36AM 41.8583 -110.1428 121° Southeast 535 616 41,000  Level Salt Lake Center
01:37AM 41.7719 -109.9536 121° Southeast 535 616 41,000  Level Salt Lake Center
01:38AM 41.6986 -109.7900 121° Southeast 536 617 41,000  Level Salt Lake Center
01:39AM 41.6108 -109.6000 122° Southeast 538 619 41,000  Level Salt Lake Center
01:40AM 41.5375 -109.4389 121° Southeast 533 613 41,000  Level Salt Lake Center
01:41AM 41.4642 -109.2806 122° Southeast 529 609 41,000  Level Salt Lake Center
01:42AM 41.3800 -109.0994 122° Southeast 539 620 41,000  Level Salt Lake Center
01:43AM 41.3069 -108.9406 121° Southeast 536 617 41,000  Level Salt Lake Center
01:44AM 41.2214 -108.7564 122° Southeast 528 608 41,000  Level Salt Lake Center
01:45AM 41.1697 -108.5797 111° Southeast 538 619 41,000  Level Salt Lake Center
01:46AM 41.1236 -108.3981 109° East 545 627 41,000  Level Salt Lake Center
01:47AM 41.0725 -108.1850 108° East 544 626 41,000  Level Salt Lake Center
01:48AM 41.0269 -108.0042 108° East 544 626 41,000  Level Salt Lake Center
01:49AM 40.9822 -107.8236 108° East 543 625 41,000  Level Salt Lake Center
01:51AM 40.9297 -107.6119 108° East 540 621 41,000  Level Denver Center
01:52AM 40.8772 -107.4014 108° East 540 621 41,000  Level Denver Center
01:53AM 40.8300 -107.2219 109° East 540 621 41,000  Level Denver Center
01:54AM 40.7844 -107.0419 108° East 541 623 41,000 -360 Level Denver Center
01:55AM 40.7367 -106.8583 109° East 544 626 40,300 -1,740 Descending Denver Center
01:56AM 40.6894 -106.6742 109° East 531 611 37,600 -2,880 Descending Denver Center
01:57AM 40.6272 -106.4881 114° Southeast 513 590 34,600 -3,480 Descending Denver Center
01:58AM 40.5522 -106.3342 123° Southeast 520 598 30,600 -3,720 Descending Denver Center
01:59AM 40.4581 -106.1533 124° Southeast 533 613 27,100 -2,700 Descending Denver Center
02:00AM 40.3872 -106.0167 124° Southeast 491 565 25,200 -1,980 Descending Denver Center
02:01AM 40.3117 -105.8728 125° Southeast 481 554 23,200 -2,040 Descending Denver Center
02:02AM 40.2361 -105.7314 125° Southeast 476 548 21,200 -2,340 Descending Denver Center
02:03AM 40.1642 -105.5928 124° Southeast 442 509 18,600 -2,520 Descending Denver Center
02:04AM 40.0986 -105.4703 125° Southeast 407 468 16,200 -1,320 Descending Denver Center
02:05AM 40.0344 -105.3506 125° Southeast 362 417 16,000 -840 Descending Denver Center
02:06AM 40.0072 -105.2233 106° East 363 418 14,600 -1,440 Descending Denver Center
02:07AM 39.9919 -105.1036 99° East 333 383 13,100 -1,080 Descending Denver Center
02:08AM 39.9597 -105.0150 115° Southeast 309 356 12,500 -600 Descending Denver Center